Beltdiep — PBYF — position and weather

sailwx.info

Track history (hours):
 
Tides and Currents Weather Stations Pressure Air Temp Water Temp Dewpoint Dewpoint Depression Visibility Wind Speed Wind Dir Waves Ship Positions

Beltdiep

Last reported at 2016-Nov-25 11:11 UTC. Time now 2016-Dec-07 20:20 UTC.
Position N 36°48' E 014°15'.
Warning: this ship's position is 12 days out of date.

Length 107 m; draft 5.5 m.

Type: Cargo ship. MMSI: 246671000.

Date/timePositionNaut miles runAvg speedWind from/ knotsBaromVisibWave heightAir tempDewpointWater temp
2016-Nov-25 11:11N 36°48' E 014°15'5 8.8
2016-Nov-25 10:34N 36°50' E 014°09'9 8.8
2016-Nov-25 09:34N 36°54' E 013°59'9 9.0
2016-Nov-25 08:34N 36°58' E 013°49'9 8.9
2016-Nov-25 07:34N 37°01' E 013°39'234 6.7
2016-Nov-23 20:28N 39°00' E 009°24'7 7.1
2016-Nov-23 19:33N 39°04' E 009°16'7 7.3
2016-Nov-23 18:33N 39°08' E 009°08'7 6.7
2016-Nov-23 17:33N 39°13' E 009°04'0 0.2
2016-Nov-23 16:32N 39°13' E 009°03'0 0.0
2016-Nov-23 15:32N 39°13' E 009°03'0 0.0
2016-Nov-23 14:32N 39°13' E 009°03'0 0.0
2016-Nov-23 13:32N 39°13' E 009°03'0 0.0
2016-Nov-23 12:32N 39°13' E 009°03'0 0.0
2016-Nov-23 11:32N 39°13' E 009°03'0 0.0
2016-Nov-23 10:32N 39°13' E 009°03'0 0.0
2016-Nov-23 09:32N 39°13' E 009°03'0 0.0
2016-Nov-23 08:32N 39°13' E 009°03'0 0.0
2016-Nov-23 07:32N 39°13' E 009°03'0 0.0
2016-Nov-23 06:32N 39°13' E 009°03'0 0.0
2016-Nov-23 03:32N 39°13' E 009°03'0 0.0
2016-Nov-23 02:32N 39°13' E 009°03'0 0.0
2016-Nov-23 00:32N 39°13' E 009°03'0 0.0
2016-Nov-22 23:32N 39°13' E 009°03'0 0.0
2016-Nov-22 22:29N 39°13' E 009°03'0 0.0
2016-Nov-22 20:32N 39°13' E 009°03'0 0.0
2016-Nov-22 19:32N 39°13' E 009°03'0 0.0
2016-Nov-22 17:32N 39°13' E 009°03'0 0.0
2016-Nov-22 16:32N 39°13' E 009°03'0 0.0
2016-Nov-22 15:32N 39°13' E 009°03'0 0.0
2016-Nov-22 14:32N 39°13' E 009°03'0 0.0
2016-Nov-22 13:32N 39°13' E 009°03'0 0.0
2016-Nov-22 10:32N 39°13' E 009°03'0 0.0
2016-Nov-22 09:32N 39°13' E 009°03'0 0.0
2016-Nov-22 08:32N 39°13' E 009°03'0 0.0
2016-Nov-22 07:32N 39°13' E 009°03'0 0.0
2016-Nov-22 05:32N 39°13' E 009°03'0 0.0
2016-Nov-22 04:32N 39°13' E 009°03'0 0.0
2016-Nov-22 03:32N 39°13' E 009°03'0 0.0
2016-Nov-22 02:29N 39°13' E 009°03'0 0.0
2016-Nov-21 23:32N 39°13' E 009°03'0 0.0
2016-Nov-21 21:32N 39°13' E 009°03'0 0.0
2016-Nov-21 17:32N 39°13' E 009°03'15 5.1
2016-Nov-21 14:32N 38°58' E 009°05'1110.6
2016-Nov-21 13:31N 38°50' E 008°56'  
2016-Nov-18 20:11N 36°00' W 005°12'2012.1
2016-Nov-18 18:30N 35°55' W 005°36'220 9.6
2016-Nov-17 19:32N 37°29' W 009°44'1010.4
2016-Nov-17 18:32N 37°39' W 009°48'4310.7
2016-Nov-17 14:33N 38°20' W 009°60'1111.0
2016-Nov-17 13:33N 38°31' W 010°03'1111.2
2016-Nov-17 12:33N 38°42' W 010°06'1111.1
2016-Nov-17 11:33N 38°53' W 010°06'3311.1
2016-Nov-17 08:32N 39°27' W 010°06'2210.8
2016-Nov-17 06:31N 39°48' W 010°06'258 8.8
2016-Nov-16 01:07N 43°50' W 008°03'3810.6
2016-Nov-15 21:33N 43°50' W 007°10'66 8.2
2016-Nov-15 13:31N 43°34' W 005°42'  
Track history (hours):
 
Tides and Currents Weather Stations Pressure Air Temp Water Temp Dewpoint Dewpoint Depression Visibility Wind Speed Wind Dir Waves Ship Positions

Beltdiep

Last reported at 2016-Nov-25 11:11 UTC. Time now 2016-Dec-07 20:20 UTC.
Position N 36°48' E 014°15'.
Warning: this ship's position is 12 days out of date.

Length 107 m; draft 5.5 m.

Type: Cargo ship. MMSI: 246671000.

Date/timePositionNaut miles runAvg speedWind from/ knotsBaromVisibWave heightAir tempDewpointWater temp
2016-Nov-25 11:11N 36°48' E 014°15'5 8.8
2016-Nov-25 10:34N 36°50' E 014°09'9 8.8
2016-Nov-25 09:34N 36°54' E 013°59'9 9.0
2016-Nov-25 08:34N 36°58' E 013°49'9 8.9
2016-Nov-25 07:34N 37°01' E 013°39'234 6.7
2016-Nov-23 20:28N 39°00' E 009°24'7 7.1
2016-Nov-23 19:33N 39°04' E 009°16'7 7.3
2016-Nov-23 18:33N 39°08' E 009°08'7 6.7
2016-Nov-23 17:33N 39°13' E 009°04'0 0.2
2016-Nov-23 16:32N 39°13' E 009°03'0 0.0
2016-Nov-23 15:32N 39°13' E 009°03'0 0.0
2016-Nov-23 14:32N 39°13' E 009°03'0 0.0
2016-Nov-23 13:32N 39°13' E 009°03'0 0.0
2016-Nov-23 12:32N 39°13' E 009°03'0 0.0
2016-Nov-23 11:32N 39°13' E 009°03'0 0.0
2016-Nov-23 10:32N 39°13' E 009°03'0 0.0
2016-Nov-23 09:32N 39°13' E 009°03'0 0.0
2016-Nov-23 08:32N 39°13' E 009°03'0 0.0
2016-Nov-23 07:32N 39°13' E 009°03'0 0.0
2016-Nov-23 06:32N 39°13' E 009°03'0 0.0
2016-Nov-23 03:32N 39°13' E 009°03'0 0.0
2016-Nov-23 02:32N 39°13' E 009°03'0 0.0
2016-Nov-23 00:32N 39°13' E 009°03'0 0.0
2016-Nov-22 23:32N 39°13' E 009°03'0 0.0
2016-Nov-22 22:29N 39°13' E 009°03'0 0.0
2016-Nov-22 20:32N 39°13' E 009°03'0 0.0
2016-Nov-22 19:32N 39°13' E 009°03'0 0.0
2016-Nov-22 17:32N 39°13' E 009°03'0 0.0
2016-Nov-22 16:32N 39°13' E 009°03'0 0.0
2016-Nov-22 15:32N 39°13' E 009°03'0 0.0
2016-Nov-22 14:32N 39°13' E 009°03'0 0.0
2016-Nov-22 13:32N 39°13' E 009°03'0 0.0
2016-Nov-22 10:32N 39°13' E 009°03'0 0.0
2016-Nov-22 09:32N 39°13' E 009°03'0 0.0
2016-Nov-22 08:32N 39°13' E 009°03'0 0.0
2016-Nov-22 07:32N 39°13' E 009°03'0 0.0
2016-Nov-22 05:32N 39°13' E 009°03'0 0.0
2016-Nov-22 04:32N 39°13' E 009°03'0 0.0
2016-Nov-22 03:32N 39°13' E 009°03'0 0.0
2016-Nov-22 02:29N 39°13' E 009°03'0 0.0
2016-Nov-21 23:32N 39°13' E 009°03'0 0.0
2016-Nov-21 21:32N 39°13' E 009°03'0 0.0
2016-Nov-21 17:32N 39°13' E 009°03'15 5.1
2016-Nov-21 14:32N 38°58' E 009°05'1110.6
2016-Nov-21 13:31N 38°50' E 008°56'  
2016-Nov-18 20:11N 36°00' W 005°12'2012.1
2016-Nov-18 18:30N 35°55' W 005°36'220 9.6
2016-Nov-17 19:32N 37°29' W 009°44'1010.4
2016-Nov-17 18:32N 37°39' W 009°48'4310.7
2016-Nov-17 14:33N 38°20' W 009°60'1111.0
2016-Nov-17 13:33N 38°31' W 010°03'1111.2
2016-Nov-17 12:33N 38°42' W 010°06'1111.1
2016-Nov-17 11:33N 38°53' W 010°06'3311.1
2016-Nov-17 08:32N 39°27' W 010°06'2210.8
2016-Nov-17 06:31N 39°48' W 010°06'258 8.8
2016-Nov-16 01:07N 43°50' W 008°03'3810.6
2016-Nov-15 21:33N 43°50' W 007°10'66 8.2
2016-Nov-15 13:31N 43°34' W 005°42'  

Dump ship's entire track history